Time;durP1;ratioP1;P1;durP2;ratioP2;P2;SDS_P1;SDS_P2;PMS_P1;PMS_P2;Temp;Humidity;BMP_temperature;BMP_pressure;BME280_temperature;BME280_humidity;BME280_pressure;Samples;Min_cycle;Max_cycle;Signal;HPM_P1;HPM_P2
2023/09/24 00:00:35;;;;;;;4.17;2.20;;;;;;;12.83;95.76;98845.94;4183712;28;21011;-89
2023/09/24 00:02:38;;;;;;;4.13;2.77;;;;;;;12.83;95.74;98840.72;4188708;28;20693;-90
2023/09/24 00:04:43;;;;;;;3.37;2.40;;;;;;;12.84;94.17;98839.78;4178396;28;20668;-89
2023/09/24 00:06:46;;;;;;;3.67;2.23;;;;;;;12.85;94.26;98844.09;4185080;28;20669;-89
2023/09/24 00:08:49;;;;;;;3.63;2.57;;;;;;;12.84;94.42;98845.00;4185963;28;20641;-89
2023/09/24 00:10:53;;;;;;;4.70;2.70;;;;;;;12.82;95.19;98848.63;4183533;28;20637;-89
2023/09/24 00:12:56;;;;;;;4.40;2.20;;;;;;;12.75;94.19;98850.81;4182485;28;20639;-88
2023/09/24 00:15:01;;;;;;;5.67;2.40;;;;;;;12.73;94.91;98860.56;4186515;28;20723;-90
2023/09/24 00:17:05;;;;;;;2.40;2.20;;;;;;;12.68;95.15;98857.38;4167381;28;20634;-90
2023/09/24 00:19:08;;;;;;;3.50;2.83;;;;;;;12.65;95.38;98861.16;4196457;28;22480;-90
2023/09/24 00:21:12;;;;;;;3.77;2.50;;;;;;;12.62;93.30;98864.78;4183565;28;20695;-90
2023/09/24 00:23:15;;;;;;;3.40;2.13;;;;;;;12.54;93.89;98866.19;4168852;28;21235;-89
2023/09/24 00:25:21;;;;;;;3.07;2.50;;;;;;;12.45;92.38;98872.03;4167137;28;20698;-89
2023/09/24 00:27:24;;;;;;;3.23;2.20;;;;;;;12.40;93.13;98864.50;4185795;28;20680;-90
2023/09/24 00:29:27;;;;;;;2.83;2.30;;;;;;;12.37;94.29;98872.53;4185735;28;20672;-90
2023/09/24 00:31:32;;;;;;;2.80;2.27;;;;;;;12.34;93.62;98867.50;4171503;28;20636;-90
2023/09/24 00:33:35;;;;;;;2.97;2.40;;;;;;;12.34;95.33;98877.94;4191648;28;20639;-89
2023/09/24 00:35:38;;;;;;;3.10;2.50;;;;;;;12.32;95.15;98873.75;4187253;28;21219;-90
2023/09/24 00:37:42;;;;;;;5.20;2.63;;;;;;;12.33;95.08;98878.06;4173193;28;20661;-90
2023/09/24 00:39:44;;;;;;;5.80;2.73;;;;;;;12.32;95.63;98877.19;4191375;28;20636;-90
2023/09/24 00:41:50;;;;;;;3.07;2.50;;;;;;;12.35;94.62;98878.78;4192544;28;20624;-89
2023/09/24 00:43:53;;;;;;;3.90;2.30;;;;;;;12.36;94.32;98876.06;4188413;28;21038;-90
2023/09/24 00:45:57;;;;;;;2.93;2.17;;;;;;;12.37;95.34;98874.28;4166088;28;21299;-91
2023/09/24 00:48:04;;;;;;;5.90;2.40;;;;;;;12.34;95.37;98880.56;4173331;28;20632;-89
2023/09/24 00:50:09;;;;;;;3.93;2.50;;;;;;;12.33;95.50;98878.06;4175746;28;20620;-90
2023/09/24 00:52:13;;;;;;;2.87;2.27;;;;;;;12.32;94.49;98878.97;4190424;28;20638;-90
2023/09/24 00:54:17;;;;;;;3.10;2.40;;;;;;;12.30;94.59;98878.25;4183917;28;20636;-89
2023/09/24 00:56:20;;;;;;;3.60;2.73;;;;;;;12.23;93.61;98872.53;4189236;28;20629;-90
2023/09/24 00:58:25;;;;;;;2.60;1.97;;;;;;;12.14;93.88;98874.88;4187022;28;20633;-90
2023/09/24 01:00:30;;;;;;;3.43;2.20;;;;;;;12.01;93.57;98875.72;4190060;28;20627;-91
2023/09/24 01:02:34;;;;;;;2.93;1.80;;;;;;;11.93;93.45;98881.44;4172282;28;20642;-90
2023/09/24 01:04:39;;;;;;;3.27;2.40;;;;;;;11.93;93.92;98881.44;4183603;28;20716;-89
2023/09/24 01:06:44;;;;;;;3.63;2.70;;;;;;;11.95;93.92;98892.66;4170513;28;20753;-90
2023/09/24 01:08:50;;;;;;;3.10;2.30;;;;;;;11.96;93.80;98886.47;4185011;28;20624;-90
2023/09/24 01:10:56;;;;;;;3.00;2.37;;;;;;;11.98;94.05;98897.69;4174209;28;20685;-89
2023/09/24 01:13:00;;;;;;;2.93;2.37;;;;;;;11.98;94.54;98897.69;4190137;28;20642;-90
2023/09/24 01:15:08;;;;;;;3.50;2.20;;;;;;;12.02;93.60;98904.41;4188179;28;21059;-90
2023/09/24 01:17:12;;;;;;;3.70;2.60;;;;;;;12.01;94.09;98894.91;4172098;28;20637;-90
2023/09/24 01:19:16;;;;;;;3.93;2.40;;;;;;;12.01;95.28;98894.91;4186228;28;20830;-90
2023/09/24 01:21:21;;;;;;;7.87;2.40;;;;;;;11.99;94.51;98896.75;4182264;28;20681;-89
2023/09/24 01:23:29;;;;;;;4.57;2.57;;;;;;;11.94;94.96;98890.97;4187602;28;20631;-90
2023/09/24 01:25:35;;;;;;;3.30;2.37;;;;;;;11.90;93.94;98894.69;4172185;28;20674;-90
2023/09/24 01:27:39;;;;;;;3.77;2.50;;;;;;;11.88;95.77;98893.94;4189730;28;21069;-90
2023/09/24 01:29:43;;;;;;;2.70;2.07;;;;;;;11.86;95.08;98901.06;4188374;28;21240;-90
2023/09/24 01:31:47;;;;;;;5.63;2.60;;;;;;;11.86;94.36;98893.22;4176437;28;20632;-90
2023/09/24 01:33:51;;;;;;;3.17;2.20;;;;;;;11.89;95.67;98900.00;4177149;28;21220;-90
2023/09/24 01:35:55;;;;;;;3.00;2.50;;;;;;;11.89;95.63;98900.00;4187177;28;20628;-90
2023/09/24 01:38:00;;;;;;;3.17;2.53;;;;;;;11.86;95.34;98906.28;4188827;28;20635;-90
2023/09/24 01:40:14;;;;;;;4.03;2.90;;;;;;;11.85;95.61;98901.13;4173444;28;20738;-90
2023/09/24 01:42:20;;;;;;;4.37;2.17;;;;;;;11.81;95.52;98890.00;4183736;28;21003;-89
2023/09/24 01:44:24;;;;;;;2.90;2.20;;;;;;;11.80;94.20;98900.56;4174344;28;20637;-90
2023/09/24 01:46:29;;;;;;;3.27;2.40;;;;;;;11.76;94.80;98897.31;4189072;28;20745;-90
2023/09/24 01:48:33;;;;;;;5.70;2.00;;;;;;;11.72;94.15;98894.13;4187978;28;20620;-90
2023/09/24 01:50:41;;;;;;;5.17;1.87;;;;;;;11.73;94.95;98898.41;4191450;28;20637;-89
2023/09/24 01:52:45;;;;;;;4.70;2.50;;;;;;;11.68;94.74;98897.84;4169888;28;20633;-90
2023/09/24 01:54:49;;;;;;;3.73;2.23;;;;;;;11.66;93.74;98894.50;4187866;28;21009;-89
2023/09/24 01:56:55;;;;;;;2.40;2.20;;;;;;;11.64;93.82;98898.97;4191416;28;20631;-89
2023/09/24 01:58:59;;;;;;;3.07;2.20;;;;;;;11.56;94.13;98898.56;4191489;28;20719;-90
2023/09/24 02:01:03;;;;;;;3.73;2.40;;;;;;;11.50;93.71;98899.81;4169423;28;20634;-90
2023/09/24 02:03:10;;;;;;;5.43;2.37;;;;;;;11.43;93.78;98892.38;4171835;28;20703;-90
2023/09/24 02:05:13;;;;;;;2.50;2.10;;;;;;;11.45;94.50;98903.56;4168509;28;20752;-90
2023/09/24 02:07:17;;;;;;;3.17;2.00;;;;;;;11.46;94.46;98905.25;4182084;28;20720;-90
2023/09/24 02:09:20;;;;;;;4.10;2.60;;;;;;;11.47;94.40;98906.94;4186027;28;21351;-90
2023/09/24 02:11:23;;;;;;;3.60;2.47;;;;;;;11.47;94.16;98909.56;4187686;28;20671;-90
2023/09/24 02:13:30;;;;;;;3.00;2.17;;;;;;;11.43;93.72;98903.66;4173221;28;20678;-89
2023/09/24 02:15:34;;;;;;;2.50;2.10;;;;;;;11.40;94.60;98903.84;4169854;28;20667;-90
2023/09/24 02:17:39;;;;;;;2.70;1.90;;;;;;;11.38;94.13;98910.06;4187599;28;20648;-90
2023/09/24 02:19:44;;;;;;;4.00;2.30;;;;;;;11.35;93.41;98910.25;4171318;28;20633;-90
2023/09/24 02:21:48;;;;;;;2.57;2.20;;;;;;;11.32;94.43;98902.59;4173302;28;20630;-90
2023/09/24 02:23:54;;;;;;;4.47;2.23;;;;;;;11.31;94.76;98901.75;4185704;28;21312;-90
2023/09/24 02:25:57;;;;;;;3.40;2.20;;;;;;;11.32;93.78;98905.19;4169125;28;20650;-90
2023/09/24 02:28:01;;;;;;;2.97;2.20;;;;;;;11.30;94.85;98907.91;4190106;28;20629;-90
2023/09/24 02:30:08;;;;;;;4.53;2.37;;;;;;;11.30;94.22;98904.47;4184483;28;20640;-89
2023/09/24 02:32:12;;;;;;;2.63;2.23;;;;;;;11.28;95.24;98904.56;4203522;28;20705;-90
2023/09/24 02:34:15;;;;;;;4.10;2.23;;;;;;;11.27;94.81;98913.34;4176595;28;20690;-90
2023/09/24 02:36:19;;;;;;;6.07;2.00;;;;;;;11.29;94.68;98916.69;4172603;28;20678;-90
2023/09/24 02:38:24;;;;;;;2.50;1.80;;;;;;;11.29;94.11;98913.25;4184141;28;20637;-90
2023/09/24 02:40:29;;;;;;;2.83;2.30;;;;;;;11.27;95.05;98922.09;4190350;28;20634;-90
2023/09/24 02:42:32;;;;;;;2.77;2.20;;;;;;;11.23;93.60;98921.44;4189010;28;20887;-90
2023/09/24 02:44:36;;;;;;;3.70;2.30;;;;;;;11.21;93.91;98923.28;4175715;28;21186;-89
2023/09/24 02:46:41;;;;;;;4.93;2.10;;;;;;;11.19;93.25;98925.13;4172869;28;21258;-90
2023/09/24 02:48:45;;;;;;;2.87;2.30;;;;;;;11.16;93.98;98920.09;4167807;28;20632;-89
2023/09/24 02:50:49;;;;;;;3.03;2.20;;;;;;;11.15;94.15;98925.41;4185996;28;20619;-90
2023/09/24 02:52:55;;;;;;;3.87;2.47;;;;;;;11.11;94.60;98922.13;4186137;28;20632;-90
2023/09/24 02:55:00;;;;;;;3.43;2.27;;;;;;;11.09;93.84;98926.56;4170290;28;20629;-89
2023/09/24 02:57:04;;;;;;;2.67;2.30;;;;;;;11.10;94.30;98936.09;4187585;28;21070;-90
2023/09/24 02:59:11;;;;;;;3.50;2.63;;;;;;;11.06;94.02;98934.59;4184856;28;21270;-91
2023/09/24 03:01:16;;;;;;;3.33;2.60;;;;;;;11.05;93.70;98937.28;4173620;28;20701;-89
2023/09/24 03:03:21;;;;;;;3.50;2.30;;;;;;;11.04;93.38;98936.44;4173876;28;20640;-90
2023/09/24 03:05:28;;;;;;;6.80;2.80;;;;;;;11.02;94.33;98943.53;4171702;28;21273;-90
2023/09/24 03:07:31;;;;;;;3.03;2.10;;;;;;;10.98;94.08;98931.56;4190804;28;20663;-89
2023/09/24 03:09:35;;;;;;;12.23;2.60;;;;;;;10.95;93.44;98939.56;4190220;28;20628;-90
2023/09/24 03:11:38;;;;;;;3.57;2.33;;;;;;;10.93;93.39;98938.81;4181800;28;21227;-89
2023/09/24 03:13:43;;;;;;;2.43;2.00;;;;;;;10.89;93.83;98942.53;4170244;28;20636;-90
2023/09/24 03:15:46;;;;;;;4.10;2.17;;;;;;;10.86;93.32;98947.09;4172165;28;20625;-90
2023/09/24 03:17:51;;;;;;;3.27;1.97;;;;;;;10.82;93.64;98945.56;4168200;28;20633;-90
2023/09/24 03:19:56;;;;;;;11.67;2.87;;;;;;;10.82;95.03;98951.66;4173344;28;20744;-90
2023/09/24 03:21:59;;;;;;;3.13;2.50;;;;;;;10.81;94.47;98952.56;4185398;28;20635;-90
2023/09/24 03:24:03;;;;;;;3.77;3.37;;;;;;;10.79;95.49;98956.16;4192219;28;21022;-90
2023/09/24 03:26:06;;;;;;;8.30;2.53;;;;;;;10.81;94.62;98957.78;4185041;28;20640;-90
2023/09/24 03:28:15;;;;;;;5.10;2.40;;;;;;;10.78;94.97;98958.88;4184580;28;20643;-90
2023/09/24 03:30:19;;;;;;;7.97;3.40;;;;;;;10.76;95.68;98956.34;4189151;28;20634;-90
2023/09/24 03:32:23;;;;;;;9.70;2.90;;;;;;;10.74;96.76;98966.03;4184938;28;20643;-89
2023/09/24 03:34:26;;;;;;;6.63;2.50;;;;;;;10.74;97.30;98968.63;4173775;28;20732;-89
2023/09/24 03:36:32;;;;;;;6.63;2.87;;;;;;;10.74;96.37;98973.03;4186694;28;20633;-90
2023/09/24 03:38:34;;;;;;;8.43;2.77;;;;;;;10.73;95.99;98973.94;4170150;28;20645;-90
2023/09/24 03:40:38;;;;;;;6.60;2.50;;;;;;;10.71;95.44;98974.03;4167063;28;20641;-89
2023/09/24 03:42:42;;;;;;;8.73;2.53;;;;;;;10.69;96.11;98969.81;4170994;28;21021;-90
2023/09/24 03:44:46;;;;;;;5.80;2.50;;;;;;;10.67;95.19;98971.66;4188704;28;20632;-90
2023/09/24 03:46:49;;;;;;;2.47;2.10;;;;;;;10.66;95.65;98970.84;4182673;28;20686;-90
2023/09/24 03:48:53;;;;;;;6.70;2.27;;;;;;;10.66;94.58;98969.97;4173162;28;20696;-89
2023/09/24 03:50:56;;;;;;;8.07;2.50;;;;;;;10.64;94.75;98970.06;4185768;28;20660;-90
2023/09/24 03:53:01;;;;;;;5.00;2.47;;;;;;;10.61;96.14;98979.81;4188235;28;20624;-90
2023/09/24 03:55:05;;;;;;;3.50;2.10;;;;;;;10.60;95.26;98979.00;4173181;28;20674;-90
2023/09/24 03:57:08;;;;;;;4.40;2.40;;;;;;;10.58;96.05;98980.81;4169860;28;21200;-90
2023/09/24 03:59:11;;;;;;;4.27;2.67;;;;;;;10.59;96.88;98982.50;4183532;28;20663;-90
2023/09/24 04:01:14;;;;;;;5.00;2.43;;;;;;;10.62;96.45;98979.75;4187311;28;20690;-90
2023/09/24 04:03:18;;;;;;;5.60;2.60;;;;;;;10.64;96.70;98997.91;4174079;28;20641;-90
2023/09/24 04:05:23;;;;;;;7.93;2.50;;;;;;;10.64;96.35;98998.75;4172070;28;20656;-90
2023/09/24 04:07:27;;;;;;;5.63;2.80;;;;;;;10.65;96.70;99002.22;4204103;28;20746;-89
2023/09/24 04:09:33;;;;;;;7.53;2.97;;;;;;;10.65;96.65;99003.06;4175223;28;20991;-90
2023/09/24 04:11:36;;;;;;;6.40;2.77;;;;;;;10.64;96.81;99006.56;4174172;28;20990;-88
2023/09/24 04:13:40;;;;;;;8.53;3.10;;;;;;;10.62;96.92;99008.44;4189320;28;20642;-88
2023/09/24 04:15:43;;;;;;;8.23;2.30;;;;;;;10.61;96.24;99013.72;4172594;28;20648;-88
2023/09/24 04:17:47;;;;;;;15.43;3.27;;;;;;;10.55;96.27;99014.88;4194429;28;21256;-88
2023/09/24 04:19:51;;;;;;;12.60;2.53;;;;;;;10.53;95.82;99013.31;4188051;28;20623;-88
2023/09/24 04:21:55;;;;;;;14.13;2.80;;;;;;;10.49;96.94;99015.25;4185276;28;21030;-88
2023/09/24 04:23:58;;;;;;;11.20;2.97;;;;;;;10.45;96.37;99023.31;4174961;28;20630;-88
2023/09/24 04:26:06;;;;;;;14.93;2.73;;;;;;;10.38;97.92;99011.50;4190290;28;20651;-88
2023/09/24 04:28:13;;;;;;;8.00;2.53;;;;;;;10.41;97.44;99020.00;4189868;28;20705;-88
2023/09/24 04:30:17;;;;;;;24.67;3.70;;;;;;;10.41;97.63;99021.78;4175511;28;20635;-88
2023/09/24 04:32:20;;;;;;;10.00;2.93;;;;;;;10.42;97.37;99028.69;4188413;28;20631;-88
2023/09/24 04:34:24;;;;;;;7.10;2.20;;;;;;;10.43;97.52;99027.75;4172828;28;20687;-88
2023/09/24 04:36:27;;;;;;;8.70;2.40;;;;;;;10.41;96.70;99027.00;4189161;28;20646;-88
2023/09/24 04:38:31;;;;;;;9.70;2.80;;;;;;;10.38;97.67;99029.75;4177318;28;20630;-88
2023/09/24 04:40:34;;;;;;;11.50;2.50;;;;;;;10.37;97.38;99036.75;4189418;28;20655;-88
2023/09/24 04:42:41;;;;;;;3.93;2.10;;;;;;;10.36;97.50;99031.63;4175602;28;20628;-88
2023/09/24 04:44:44;;;;;;;7.40;2.57;;;;;;;10.34;97.01;99034.31;4205684;28;20634;-88
2023/09/24 04:46:47;;;;;;;8.27;2.60;;;;;;;10.37;97.80;99038.50;4191234;28;20645;-88
2023/09/24 04:48:52;;;;;;;16.83;2.60;;;;;;;10.35;98.31;99043.78;4171785;28;20691;-88
2023/09/24 04:50:56;;;;;;;13.17;2.70;;;;;;;10.35;97.60;99043.78;4187172;28;20636;-88
2023/09/24 04:52:59;;;;;;;13.47;2.73;;;;;;;10.34;97.97;99043.88;4169651;28;21092;-88
2023/09/24 04:55:05;;;;;;;10.57;2.57;;;;;;;10.35;97.95;99048.16;4190057;28;21001;-88
2023/09/24 04:57:09;;;;;;;14.27;2.63;;;;;;;10.39;98.42;99047.94;4187775;28;20627;-88
2023/09/24 04:59:14;;;;;;;25.37;3.70;;;;;;;10.40;97.95;99047.03;4189867;28;21206;-88
2023/09/24 05:01:17;;;;;;;22.43;3.60;;;;;;;10.41;98.41;99050.47;4170369;28;21350;-88
2023/09/24 05:03:20;;;;;;;19.53;3.50;;;;;;;10.40;98.45;99051.38;4174705;28;20629;-88
2023/09/24 05:05:24;;;;;;;13.50;2.80;;;;;;;10.40;98.49;99061.81;4186058;28;20745;-88
2023/09/24 05:07:27;;;;;;;16.53;3.33;;;;;;;10.42;98.59;99059.97;4186254;28;21179;-88
2023/09/24 05:09:31;;;;;;;3.57;2.60;;;;;;;10.40;98.29;99072.22;4199794;28;20635;-88
2023/09/24 05:11:33;;;;;;;13.70;3.07;;;;;;;10.38;98.58;99068.88;4174293;28;20648;-88
2023/09/24 05:13:36;;;;;;;5.70;2.73;;;;;;;10.36;97.69;99068.94;4190739;28;21064;-88
2023/09/24 05:15:41;;;;;;;11.13;3.00;;;;;;;10.32;97.64;99075.22;4184549;28;20651;-88
2023/09/24 05:17:44;;;;;;;17.80;3.00;;;;;;;10.32;97.52;99061.38;4187873;28;20652;-88
2023/09/24 05:19:48;;;;;;;6.23;2.40;;;;;;;10.33;97.23;99065.66;4198343;28;20663;-90
2023/09/24 05:21:52;;;;;;;6.63;2.10;;;;;;;10.31;97.18;99069.28;4182980;28;20697;-90
2023/09/24 05:23:56;;;;;;;15.17;2.70;;;;;;;10.26;97.06;99077.31;4187665;28;20978;-90
2023/09/24 05:26:00;;;;;;;14.43;2.60;;;;;;;10.24;97.15;99078.31;4175380;28;20633;-90
2023/09/24 05:28:05;;;;;;;5.03;2.20;;;;;;;10.21;96.81;99076.72;4190236;28;21265;-90
2023/09/24 05:30:09;;;;;;;3.47;1.97;;;;;;;10.19;97.20;99082.94;4189556;28;21010;-90
2023/09/24 05:32:14;;;;;;;4.90;2.13;;;;;;;10.15;96.78;99082.25;4190935;28;20680;-90
2023/09/24 05:34:17;;;;;;;5.73;2.47;;;;;;;10.13;96.45;99068.47;4171459;28;20657;-90
2023/09/24 05:36:22;;;;;;;3.40;2.17;;;;;;;10.14;96.88;99075.34;4186684;28;20678;-90
2023/09/24 05:38:26;;;;;;;24.80;3.70;;;;;;;10.15;96.75;99079.66;4183564;28;21229;-89
2023/09/24 05:40:30;;;;;;;4.37;2.20;;;;;;;10.18;97.33;99082.09;4167289;28;20736;-90
2023/09/24 05:42:35;;;;;;;9.23;2.40;;;;;;;10.22;97.86;99083.59;4191229;28;20642;-89
2023/09/24 05:44:39;;;;;;;17.07;2.67;;;;;;;10.25;97.67;99085.22;4172584;28;20867;-90
2023/09/24 05:46:41;;;;;;;18.80;3.20;;;;;;;10.27;98.22;99085.97;4191320;28;20745;-90
2023/09/24 05:48:46;;;;;;;28.53;3.97;;;;;;;10.29;98.71;99084.16;4186749;28;21379;-90
2023/09/24 05:50:49;;;;;;;19.30;2.50;;;;;;;10.30;99.18;99081.47;4186674;28;20668;-89
2023/09/24 05:52:52;;;;;;;13.50;2.90;;;;;;;10.36;98.14;99095.03;4184267;28;20643;-89
2023/09/24 05:54:56;;;;;;;7.47;2.57;;;;;;;10.40;97.90;99098.31;4171266;28;20629;-90
2023/09/24 05:56:59;;;;;;;5.40;2.50;;;;;;;10.44;98.52;99094.63;4191878;28;21269;-91
2023/09/24 05:59:03;;;;;;;14.57;2.63;;;;;;;10.50;98.44;99104.75;4176405;28;20683;-89
2023/09/24 06:01:06;;;;;;;13.00;2.80;;;;;;;10.53;98.81;99104.59;4186392;28;20635;-90
2023/09/24 06:03:10;;;;;;;19.30;3.10;;;;;;;10.56;98.14;99101.81;4189488;28;20636;-90
2023/09/24 06:05:15;;;;;;;5.93;3.00;;;;;;;10.56;98.79;99102.66;4164221;28;21267;-90
2023/09/24 06:07:18;;;;;;;26.83;3.30;;;;;;;10.58;98.39;99095.59;4190394;28;20789;-90
2023/09/24 06:09:22;;;;;;;18.90;3.17;;;;;;;10.60;97.38;99104.19;4192352;28;21092;-90
2023/09/24 06:11:25;;;;;;;13.50;3.07;;;;;;;10.62;97.58;99109.31;4198228;28;20663;-90
2023/09/24 06:13:28;;;;;;;11.63;3.10;;;;;;;10.67;97.94;99107.31;4185413;28;20731;-90
2023/09/24 06:15:32;;;;;;;11.83;2.90;;;;;;;10.77;97.65;99106.75;4186921;28;20619;-90
2023/09/24 06:17:35;;;;;;;24.17;3.33;;;;;;;10.85;98.42;99102.81;4187691;28;20658;-90
2023/09/24 06:19:39;;;;;;;6.10;2.83;;;;;;;10.95;98.60;99101.38;4173627;28;20663;-90
2023/09/24 06:21:44;;;;;;;10.37;3.17;;;;;;;11.03;98.35;99108.81;4167978;28;20621;-90
2023/09/24 06:23:47;;;;;;;11.00;2.70;;;;;;;11.05;97.56;99115.66;4185493;28;20646;-90
2023/09/24 06:25:55;;;;;;;6.37;2.60;;;;;;;11.04;96.94;99124.38;4182444;28;21020;-90
2023/09/24 06:27:58;;;;;;;6.17;2.53;;;;;;;11.02;97.11;99121.03;4184278;28;21272;-90
2023/09/24 06:30:04;;;;;;;5.80;2.30;;;;;;;11.02;96.61;99118.41;4180857;28;21027;-90
2023/09/24 06:32:07;;;;;;;5.43;2.90;;;;;;;11.05;97.80;99123.47;4187161;28;20697;-90
2023/09/24 06:34:10;;;;;;;7.90;2.53;;;;;;;11.11;97.65;99130.13;4187400;28;20644;-90
2023/09/24 06:36:14;;;;;;;8.27;3.03;;;;;;;11.21;97.18;99126.09;4188281;28;20644;-90
2023/09/24 06:38:18;;;;;;;7.90;2.77;;;;;;;11.32;98.90;99127.19;4185789;28;20978;-90
2023/09/24 06:40:21;;;;;;;4.80;2.33;;;;;;;11.49;99.94;99127.16;4198891;28;21253;-90
2023/09/24 06:42:25;;;;;;;5.60;2.53;;;;;;;11.69;98.64;99119.88;4172748;28;20741;-90
2023/09/24 06:44:28;;;;;;;6.57;2.43;;;;;;;11.92;96.04;99127.25;4184134;28;21097;-90
2023/09/24 06:46:32;;;;;;;5.90;2.33;;;;;;;12.12;95.05;99135.66;4185909;28;21134;-90
2023/09/24 06:48:35;;;;;;;3.67;2.60;;;;;;;12.34;96.93;99136.94;4171353;28;20657;-90
2023/09/24 06:50:38;;;;;;;3.40;2.70;;;;;;;12.51;97.45;99147.22;4186293;28;21203;-90
2023/09/24 06:52:41;;;;;;;3.90;2.73;;;;;;;12.59;94.74;99145.00;4173511;28;20722;-90
2023/09/24 06:54:45;;;;;;;2.90;2.60;;;;;;;12.70;93.18;99145.19;4189562;28;20890;-90
2023/09/24 06:56:49;;;;;;;3.83;2.73;;;;;;;12.85;95.64;99158.25;4184000;28;20736;-90
2023/09/24 06:58:52;;;;;;;3.30;2.53;;;;;;;12.95;93.83;99155.91;4174623;28;20625;-90
2023/09/24 07:00:59;;;;;;;2.80;2.10;;;;;;;13.04;92.94;99163.22;4185182;28;20703;-90
2023/09/24 07:03:03;;;;;;;2.73;2.40;;;;;;;13.17;92.98;99172.00;4185481;28;21207;-90
2023/09/24 07:05:08;;;;;;;3.33;2.60;;;;;;;13.29;92.83;99167.69;4198936;28;21325;-90
2023/09/24 07:07:12;;;;;;;3.23;2.70;;;;;;;13.45;92.62;99170.19;4200754;28;21118;-90
2023/09/24 07:09:16;;;;;;;2.80;2.50;;;;;;;13.70;92.04;99176.41;4182384;28;20987;-90
2023/09/24 07:11:26;;;;;;;5.80;2.80;;;;;;;13.89;91.76;99163.81;4186880;28;21223;-90
2023/09/24 07:13:31;;;;;;;2.43;2.00;;;;;;;14.15;90.97;99172.53;4191867;28;20644;-90
2023/09/24 07:15:34;;;;;;;4.13;2.30;;;;;;;14.38;92.88;99176.28;4191287;28;20644;-89
2023/09/24 07:17:38;;;;;;;2.63;2.23;;;;;;;14.65;91.86;99178.75;4183645;28;20652;-90
2023/09/24 07:19:42;;;;;;;4.93;2.50;;;;;;;14.73;88.09;99176.47;4185738;28;20645;-89
2023/09/24 07:21:46;;;;;;;3.73;2.70;;;;;;;14.82;88.24;99170.56;4186194;28;20633;-89
2023/09/24 07:23:51;;;;;;;3.10;2.33;;;;;;;14.91;87.50;99174.34;4201452;28;20712;-90
2023/09/24 07:25:58;;;;;;;2.73;2.50;;;;;;;15.16;89.62;99177.81;4185874;28;20649;-90
2023/09/24 07:28:04;;;;;;;3.50;2.67;;;;;;;15.36;87.95;99179.94;4185478;28;21073;-91
2023/09/24 07:30:09;;;;;;;2.70;2.40;;;;;;;15.45;86.20;99176.66;4188936;28;20692;-90
2023/09/24 07:32:14;;;;;;;3.50;2.60;;;;;;;15.48;86.68;99181.69;4171585;28;20623;-90
2023/09/24 07:34:17;;;;;;;2.70;2.10;;;;;;;15.62;87.33;99187.66;4187235;28;21279;-89
2023/09/24 07:36:20;;;;;;;2.73;2.30;;;;;;;15.82;88.33;99187.94;4190770;28;20719;-90
2023/09/24 07:38:36;;;;;;;3.37;2.53;;;;;;;16.05;87.69;99189.72;4185880;28;20636;-90
2023/09/24 07:40:40;;;;;;;4.40;2.70;;;;;;;16.10;86.28;99182.34;4184100;28;20639;-90
2023/09/24 07:42:46;;;;;;;5.23;2.30;;;;;;;16.25;87.41;99191.78;4172872;28;20629;-90
2023/09/24 07:44:51;;;;;;;2.80;2.10;;;;;;;16.43;86.56;99190.44;4190111;28;20754;-91
2023/09/24 07:46:54;;;;;;;2.47;2.27;;;;;;;16.57;87.19;99184.03;4188498;28;20631;-90
2023/09/24 07:48:57;;;;;;;2.43;2.00;;;;;;;16.76;84.46;99189.56;4175230;28;21219;-91
2023/09/24 07:51:00;;;;;;;2.50;2.13;;;;;;;16.91;85.98;99185.78;4171998;28;20670;-88
2023/09/24 07:53:05;;;;;;;4.20;2.30;;;;;;;17.10;84.93;99186.06;4187960;28;20639;-88
2023/09/24 07:55:09;;;;;;;6.80;3.10;;;;;;;17.26;85.95;99191.84;4181965;28;20657;-86
2023/09/24 07:57:12;;;;;;;6.20;2.60;;;;;;;17.40;82.43;99187.19;4179837;28;20615;-86
2023/09/24 07:59:16;;;;;;;3.50;2.50;;;;;;;17.51;83.64;99192.47;4187298;28;21119;-85
2023/09/24 08:01:22;;;;;;;3.47;2.67;;;;;;;17.65;82.71;99187.78;4190073;28;20633;-86
2023/09/24 08:03:26;;;;;;;2.60;2.10;;;;;;;17.72;80.82;99186.31;4189330;28;21239;-88
2023/09/24 08:05:30;;;;;;;4.73;2.80;;;;;;;17.75;81.61;99187.88;4174381;28;20658;-88
2023/09/24 08:07:36;;;;;;;6.83;2.70;;;;;;;17.81;83.34;99182.94;4169661;28;20745;-88
2023/09/24 08:09:40;;;;;;;3.97;2.67;;;;;;;17.95;79.89;99190.59;4188558;28;20764;-88
2023/09/24 08:11:43;;;;;;;2.90;2.43;;;;;;;17.95;79.90;99187.94;4190774;28;21036;-88
2023/09/24 08:13:47;;;;;;;4.30;2.53;;;;;;;18.05;80.29;99188.91;4190836;28;20682;-87
2023/09/24 08:15:57;;;;;;;3.63;2.70;;;;;;;18.17;81.42;99188.78;4189798;28;20654;-85
2023/09/24 08:18:08;;;;;;;4.23;2.70;;;;;;;18.25;80.79;99188.16;4185015;28;20639;-86
2023/09/24 08:20:12;;;;;;;3.90;2.73;;;;;;;18.32;79.52;99184.88;4185978;28;20635;-87
2023/09/24 08:22:18;;;;;;;3.63;2.40;;;;;;;18.41;80.72;99184.13;4179978;28;20632;-89
2023/09/24 08:24:21;;;;;;;3.40;2.60;;;;;;;18.48;79.93;99183.50;4192068;28;21243;-89
2023/09/24 08:26:25;;;;;;;4.30;2.80;;;;;;;18.53;80.63;99186.59;4167727;28;20637;-89
2023/09/24 08:28:28;;;;;;;4.93;2.70;;;;;;;18.65;80.58;99193.50;4190870;28;20632;-90
2023/09/24 08:30:32;;;;;;;3.63;2.70;;;;;;;18.78;78.68;99194.19;4191231;28;21202;-89
2023/09/24 08:32:36;;;;;;;3.30;2.53;;;;;;;18.87;79.86;99193.41;4176213;28;20628;-89
2023/09/24 08:34:40;;;;;;;3.43;2.23;;;;;;;18.94;81.63;99187.47;4178624;28;20638;-90
2023/09/24 08:36:44;;;;;;;4.63;2.63;;;;;;;18.99;78.68;99193.19;4169403;28;20634;-88
2023/09/24 08:38:47;;;;;;;3.33;2.70;;;;;;;19.07;79.11;99188.13;4183975;28;20687;-89
2023/09/24 08:40:51;;;;;;;3.60;2.43;;;;;;;19.12;77.17;99193.03;4190679;28;20627;-88
2023/09/24 08:42:56;;;;;;;5.07;2.50;;;;;;;19.14;77.10;99193.72;4204450;28;20653;-89
2023/09/24 08:45:06;;;;;;;4.10;2.30;;;;;;;19.19;77.45;99189.72;4189501;28;20763;-90
2023/09/24 08:47:13;;;;;;;4.87;2.50;;;;;;;19.26;77.39;99196.19;4172566;28;20726;-89
2023/09/24 08:49:17;;;;;;;4.30;2.47;;;;;;;19.37;76.44;99189.97;4191539;28;20649;-89
2023/09/24 08:51:22;;;;;;;4.63;2.37;;;;;;;19.38;74.40;99185.38;4169586;28;21228;-88
2023/09/24 08:53:28;;;;;;;4.60;2.10;;;;;;;19.42;74.17;99185.94;4205523;28;20705;-87
2023/09/24 08:55:31;;;;;;;3.80;2.20;;;;;;;19.53;74.29;99183.19;4191621;28;21215;-88
2023/09/24 08:57:35;;;;;;;4.20;2.27;;;;;;;19.61;75.01;99189.50;4204998;28;20653;-88
2023/09/24 08:59:38;;;;;;;4.90;2.20;;;;;;;19.65;75.36;99188.28;4189653;28;20749;-88
2023/09/24 09:01:41;;;;;;;3.57;2.50;;;;;;;19.69;77.28;99184.38;4184430;28;20622;-88
2023/09/24 09:03:45;;;;;;;3.87;2.30;;;;;;;19.84;77.48;99177.75;4192200;28;20637;-88
2023/09/24 09:05:49;;;;;;;4.80;2.57;;;;;;;19.99;78.82;99181.72;4184187;28;20642;-88
2023/09/24 09:07:58;;;;;;;2.80;1.90;;;;;;;20.18;77.67;99181.75;4184798;28;21061;-88
2023/09/24 09:10:03;;;;;;;2.77;1.50;;;;;;;20.35;77.94;99188.03;4177906;28;20616;-88
2023/09/24 09:12:07;;;;;;;4.63;2.20;;;;;;;20.47;75.64;99178.97;4171081;28;20805;-88
2023/09/24 09:14:11;;;;;;;5.43;1.80;;;;;;;20.52;72.88;99179.41;4175970;28;20629;-88
2023/09/24 09:16:16;;;;;;;3.67;1.90;;;;;;;20.51;72.08;99180.38;4185718;28;20714;-88
2023/09/24 09:18:24;;;;;;;8.70;2.43;;;;;;;20.39;70.95;99170.88;4186925;28;20683;-88
2023/09/24 09:20:41;;;;;;;4.17;2.30;;;;;;;20.23;69.07;99168.94;4190084;28;20696;-88
2023/09/24 09:22:47;;;;;;;3.77;1.90;;;;;;;20.31;73.09;99161.13;4183865;28;20659;-88
2023/09/24 09:25:04;;;;;;;3.40;1.90;;;;;;;20.52;72.22;99166.16;4189243;28;20676;-88
2023/09/24 09:27:08;;;;;;;3.30;2.10;;;;;;;20.55;71.51;99155.28;4176396;28;21271;-89
2023/09/24 09:29:21;;;;;;;3.10;2.17;;;;;;;20.58;70.75;99162.09;4186373;28;20624;-88
2023/09/24 09:31:24;;;;;;;2.90;1.93;;;;;;;20.43;69.75;99151.09;4170894;28;20733;-89
2023/09/24 09:33:28;;;;;;;3.10;1.93;;;;;;;20.47;68.84;99157.78;4184922;28;20639;-88
2023/09/24 09:35:32;;;;;;;2.80;2.00;;;;;;;20.53;69.29;99157.22;4183018;28;20635;-89
2023/09/24 09:37:36;;;;;;;3.80;1.77;;;;;;;20.64;69.65;99151.78;4187780;28;20638;-89
2023/09/24 09:39:38;;;;;;;2.90;1.80;;;;;;;20.78;71.90;99159.34;4183826;28;21851;-89
2023/09/24 09:41:44;;;;;;;3.00;1.70;;;;;;;20.91;73.39;99151.88;4184047;28;20730;-89
2023/09/24 09:43:48;;;;;;;4.30;1.80;;;;;;;21.00;73.36;99151.03;4184003;28;21008;-89